createdAt,value
2023-04-21T00:01:32.994Z,27.00
2023-04-21T00:16:38.064Z,30.85
2023-04-21T00:31:43.159Z,27.25
2023-04-21T00:46:49.107Z,29.65
2023-04-21T01:01:54.395Z,27.32
2023-04-21T01:16:59.498Z,28.95
2023-04-21T01:32:10.821Z,22.77
2023-04-21T01:47:16.042Z,28.27
2023-04-21T02:02:21.463Z,29.10
2023-04-21T02:17:28.455Z,28.80
2023-04-21T02:32:34.296Z,28.70
2023-04-21T02:47:39.532Z,25.23
2023-04-21T03:02:45.703Z,27.02
2023-04-21T03:17:51.563Z,27.15
2023-04-21T03:32:58.755Z,23.87
2023-04-21T03:48:04.017Z,26.37
2023-04-21T04:03:10.492Z,25.52
2023-04-21T04:18:15.616Z,42.27
2023-04-21T04:33:20.708Z,30.97
2023-04-21T04:48:26.298Z,36.90
2023-04-21T05:03:31.390Z,23.32
2023-04-21T05:18:36.461Z,29.37
2023-04-21T05:33:41.654Z,24.98
2023-04-21T05:48:46.641Z,27.58
2023-04-21T06:03:52.010Z,28.10
2023-04-21T06:18:59.002Z,42.53
2023-04-21T06:34:04.004Z,27.75
2023-04-21T06:49:09.709Z,47.13
2023-04-21T07:04:14.725Z,33.00
2023-04-21T07:19:20.091Z,20.90
2023-04-21T07:34:25.595Z,21.97
2023-04-21T07:49:30.691Z,18.35
2023-04-21T08:04:35.893Z,16.40
2023-04-21T08:19:41.362Z,15.95
2023-04-21T08:34:46.330Z,12.98
2023-04-21T08:49:55.345Z,15.23
2023-04-21T09:05:00.668Z,12.15
2023-04-21T09:20:17.956Z,14.20
2023-04-21T09:35:23.803Z,11.70
2023-04-21T10:05:39.478Z,11.20
2023-04-21T10:20:58.175Z,9.00
2023-04-21T10:36:04.969Z,7.35
2023-04-21T10:51:11.881Z,7.30
2023-04-21T11:06:19.248Z,6.83
2023-04-21T11:21:24.537Z,12.07
2023-04-21T11:36:30.321Z,13.28
2023-04-21T11:51:43.313Z,6.45
2023-04-21T12:06:50.822Z,8.28
2023-04-21T12:21:57.506Z,6.20
2023-04-21T12:37:03.255Z,8.57
2023-04-21T12:52:10.014Z,5.47
2023-04-21T13:07:16.217Z,8.00
2023-04-21T13:22:21.394Z,8.20
2023-04-21T13:37:26.798Z,5.65
2023-04-21T13:52:32.205Z,8.85
2023-04-21T14:07:38.671Z,4.87
2023-04-21T14:22:43.760Z,4.37
2023-04-21T14:37:48.704Z,8.38
2023-04-21T14:52:53.709Z,7.35
2023-04-21T15:07:58.634Z,8.70
2023-04-21T15:23:03.668Z,6.60
2023-04-21T15:38:09.331Z,6.30
2023-04-21T15:53:14.363Z,3.80
2023-04-21T16:08:19.455Z,4.25
2023-04-21T16:23:25.297Z,6.90
2023-04-21T16:38:30.464Z,5.65
2023-04-21T16:53:37.348Z,9.73
2023-04-21T17:08:42.359Z,10.08
2023-04-21T17:23:47.418Z,7.03
2023-04-21T17:38:52.362Z,6.42
2023-04-21T17:53:57.331Z,5.08
2023-04-21T18:09:02.619Z,4.97
2023-04-21T18:24:07.739Z,5.08
2023-04-21T18:39:13.021Z,9.13
2023-04-21T18:54:17.979Z,10.48
2023-04-21T19:09:23.012Z,16.00
2023-04-21T19:24:27.978Z,16.20
2023-04-21T19:39:33.358Z,18.30
2023-04-21T19:54:38.562Z,13.05
2023-04-21T20:09:43.981Z,14.33
2023-04-21T20:24:49.514Z,17.60
2023-04-21T20:39:54.467Z,13.78
2023-04-21T20:54:59.454Z,17.60
2023-04-21T21:10:04.780Z,12.98
2023-04-21T21:25:10.686Z,14.98
2023-04-21T21:40:15.743Z,20.10
2023-04-21T21:55:20.809Z,18.75
2023-04-21T22:10:26.183Z,19.10
2023-04-21T22:25:31.176Z,18.07
2023-04-21T22:40:36.715Z,23.05
2023-04-21T22:55:41.758Z,15.10
2023-04-21T23:10:47.675Z,19.37
2023-04-21T23:25:52.645Z,25.50
2023-04-21T23:40:57.664Z,14.90
2023-04-21T23:56:02.697Z,19.57
